sensor_id;sensor_type;location;lat;lon;timestamp;temperature;humidity
84296;SHT31;74464;42.688;23.304;2024-01-10T00:02:24;-5.17;72.81
84296;SHT31;74464;42.688;23.304;2024-01-10T00:04:50;-5.12;73.01
84296;SHT31;74464;42.688;23.304;2024-01-10T00:07:17;-5.14;72.79
84296;SHT31;74464;42.688;23.304;2024-01-10T00:09:42;-5.15;73.31
84296;SHT31;74464;42.688;23.304;2024-01-10T00:12:08;-5.00;72.68
84296;SHT31;74464;42.688;23.304;2024-01-10T00:14:34;-4.89;72.64
84296;SHT31;74464;42.688;23.304;2024-01-10T00:16:59;-5.00;71.89
84296;SHT31;74464;42.688;23.304;2024-01-10T00:19:26;-5.04;72.48
84296;SHT31;74464;42.688;23.304;2024-01-10T00:21:51;-5.04;72.44
84296;SHT31;74464;42.688;23.304;2024-01-10T00:24:23;-4.94;72.44
84296;SHT31;74464;42.688;23.304;2024-01-10T00:26:48;-4.97;72.04
84296;SHT31;74464;42.688;23.304;2024-01-10T00:29:14;-5.14;72.51
84296;SHT31;74464;42.688;23.304;2024-01-10T00:31:41;-5.05;72.96
84296;SHT31;74464;42.688;23.304;2024-01-10T00:34:07;-5.00;73.07
84296;SHT31;74464;42.688;23.304;2024-01-10T00:36:33;-4.84;72.15
84296;SHT31;74464;42.688;23.304;2024-01-10T00:38:59;-4.83;70.64
84296;SHT31;74464;42.688;23.304;2024-01-10T00:41:25;-4.87;71.36
84296;SHT31;74464;42.688;23.304;2024-01-10T00:43:50;-4.77;72.17
84296;SHT31;74464;42.688;23.304;2024-01-10T00:46:16;-4.69;72.54
84296;SHT31;74464;42.688;23.304;2024-01-10T00:48:42;-4.58;71.93
84296;SHT31;74464;42.688;23.304;2024-01-10T00:51:07;-4.51;71.72
84296;SHT31;74464;42.688;23.304;2024-01-10T00:53:37;-4.53;71.51
84296;SHT31;74464;42.688;23.304;2024-01-10T00:56:06;-4.40;70.10
84296;SHT31;74464;42.688;23.304;2024-01-10T00:58:32;-4.32;70.22
84296;SHT31;74464;42.688;23.304;2024-01-10T01:00:57;-4.59;70.70
84296;SHT31;74464;42.688;23.304;2024-01-10T01:03:23;-5.08;72.13
84296;SHT31;74464;42.688;23.304;2024-01-10T01:05:49;-5.18;73.38
84296;SHT31;74464;42.688;23.304;2024-01-10T01:08:15;-5.15;73.02
84296;SHT31;74464;42.688;23.304;2024-01-10T01:10:42;-5.04;72.83
84296;SHT31;74464;42.688;23.304;2024-01-10T01:13:07;-4.91;72.43
84296;SHT31;74464;42.688;23.304;2024-01-10T01:15:33;-4.69;71.29
84296;SHT31;74464;42.688;23.304;2024-01-10T01:18:00;-4.65;71.15
84296;SHT31;74464;42.688;23.304;2024-01-10T01:20:25;-4.97;72.17
84296;SHT31;74464;42.688;23.304;2024-01-10T01:22:51;-5.08;73.24
84296;SHT31;74464;42.688;23.304;2024-01-10T01:25:16;-5.27;73.60
84296;SHT31;74464;42.688;23.304;2024-01-10T01:27:42;-5.28;73.60
84296;SHT31;74464;42.688;23.304;2024-01-10T01:30:08;-5.27;74.34
84296;SHT31;74464;42.688;23.304;2024-01-10T01:32:34;-5.36;74.67
84296;SHT31;74464;42.688;23.304;2024-01-10T01:34:59;-5.32;73.86
84296;SHT31;74464;42.688;23.304;2024-01-10T01:37:25;-5.04;73.47
84296;SHT31;74464;42.688;23.304;2024-01-10T01:39:50;-4.84;72.40
84296;SHT31;74464;42.688;23.304;2024-01-10T01:42:16;-5.03;72.18
84296;SHT31;74464;42.688;23.304;2024-01-10T01:44:41;-5.15;73.11
84296;SHT31;74464;42.688;23.304;2024-01-10T01:47:08;-4.93;72.92
84296;SHT31;74464;42.688;23.304;2024-01-10T01:49:34;-4.79;72.56
84296;SHT31;74464;42.688;23.304;2024-01-10T01:52:00;-4.56;72.59
84296;SHT31;74464;42.688;23.304;2024-01-10T01:54:26;-4.76;71.75
84296;SHT31;74464;42.688;23.304;2024-01-10T01:56:52;-4.90;72.30
84296;SHT31;74464;42.688;23.304;2024-01-10T01:59:19;-5.08;72.43
84296;SHT31;74464;42.688;23.304;2024-01-10T02:01:45;-5.31;73.05
84296;SHT31;74464;42.688;23.304;2024-01-10T02:04:11;-5.36;73.39
84296;SHT31;74464;42.688;23.304;2024-01-10T02:06:38;-5.46;73.39
84296;SHT31;74464;42.688;23.304;2024-01-10T02:09:04;-5.39;74.25
84296;SHT31;74464;42.688;23.304;2024-01-10T02:11:30;-5.38;74.95
84296;SHT31;74464;42.688;23.304;2024-01-10T02:13:57;-5.53;74.63
84296;SHT31;74464;42.688;23.304;2024-01-10T02:16:25;-5.49;74.56
84296;SHT31;74464;42.688;23.304;2024-01-10T02:18:50;-5.46;73.56
84296;SHT31;74464;42.688;23.304;2024-01-10T02:21:20;-5.43;73.64
84296;SHT31;74464;42.688;23.304;2024-01-10T02:23:46;-5.46;73.23
84296;SHT31;74464;42.688;23.304;2024-01-10T02:26:11;-5.39;71.89
84296;SHT31;74464;42.688;23.304;2024-01-10T02:28:37;-5.28;71.15
84296;SHT31;74464;42.688;23.304;2024-01-10T02:31:03;-5.45;70.21
84296;SHT31;74464;42.688;23.304;2024-01-10T02:33:28;-5.48;70.93
84296;SHT31;74464;42.688;23.304;2024-01-10T02:35:54;-5.35;71.20
84296;SHT31;74464;42.688;23.304;2024-01-10T02:38:19;-5.48;70.20
84296;SHT31;74464;42.688;23.304;2024-01-10T02:40:48;-5.38;70.19
84296;SHT31;74464;42.688;23.304;2024-01-10T02:43:15;-5.22;69.75
84296;SHT31;74464;42.688;23.304;2024-01-10T02:45:41;-5.18;69.66
84296;SHT31;74464;42.688;23.304;2024-01-10T02:48:07;-5.28;69.55
84296;SHT31;74464;42.688;23.304;2024-01-10T02:50:33;-5.32;69.30
84296;SHT31;74464;42.688;23.304;2024-01-10T02:52:58;-5.34;70.23
84296;SHT31;74464;42.688;23.304;2024-01-10T02:55:24;-5.35;70.29
84296;SHT31;74464;42.688;23.304;2024-01-10T02:57:49;-5.29;69.82
84296;SHT31;74464;42.688;23.304;2024-01-10T03:00:15;-5.46;70.08
84296;SHT31;74464;42.688;23.304;2024-01-10T03:02:41;-5.29;69.88
84296;SHT31;74464;42.688;23.304;2024-01-10T03:05:07;-5.38;71.22
84296;SHT31;74464;42.688;23.304;2024-01-10T03:07:34;-5.51;72.78
84296;SHT31;74464;42.688;23.304;2024-01-10T03:10:00;-5.31;72.67
84296;SHT31;74464;42.688;23.304;2024-01-10T03:12:27;-5.51;73.34
84296;SHT31;74464;42.688;23.304;2024-01-10T03:14:52;-5.42;73.20
84296;SHT31;74464;42.688;23.304;2024-01-10T03:17:19;-5.43;73.40
84296;SHT31;74464;42.688;23.304;2024-01-10T03:19:45;-5.45;73.48
84296;SHT31;74464;42.688;23.304;2024-01-10T03:22:10;-5.29;72.92
84296;SHT31;74464;42.688;23.304;2024-01-10T03:24:38;-5.31;71.56
84296;SHT31;74464;42.688;23.304;2024-01-10T03:27:04;-5.32;71.34
84296;SHT31;74464;42.688;23.304;2024-01-10T03:29:30;-5.42;71.16
84296;SHT31;74464;42.688;23.304;2024-01-10T03:31:56;-5.34;71.59
84296;SHT31;74464;42.688;23.304;2024-01-10T03:34:21;-5.36;71.52
84296;SHT31;74464;42.688;23.304;2024-01-10T03:36:49;-5.18;70.55
84296;SHT31;74464;42.688;23.304;2024-01-10T03:39:14;-5.07;70.32
84296;SHT31;74464;42.688;23.304;2024-01-10T03:41:43;-5.21;70.10
84296;SHT31;74464;42.688;23.304;2024-01-10T03:44:09;-5.15;70.05
84296;SHT31;74464;42.688;23.304;2024-01-10T03:46:35;-5.14;70.55
84296;SHT31;74464;42.688;23.304;2024-01-10T03:49:03;-5.25;70.53
84296;SHT31;74464;42.688;23.304;2024-01-10T03:51:34;-5.25;70.64
84296;SHT31;74464;42.688;23.304;2024-01-10T03:54:00;-5.35;69.88
84296;SHT31;74464;42.688;23.304;2024-01-10T03:56:26;-5.39;70.56
84296;SHT31;74464;42.688;23.304;2024-01-10T03:58:51;-5.27;70.32
84296;SHT31;74464;42.688;23.304;2024-01-10T04:01:22;-5.31;69.61
84296;SHT31;74464;42.688;23.304;2024-01-10T04:03:49;-5.24;69.40
84296;SHT31;74464;42.688;23.304;2024-01-10T04:06:15;-5.14;68.55
84296;SHT31;74464;42.688;23.304;2024-01-10T04:08:41;-5.05;68.68
84296;SHT31;74464;42.688;23.304;2024-01-10T04:11:07;-5.11;68.59
84296;SHT31;74464;42.688;23.304;2024-01-10T04:13:34;-4.87;68.13
84296;SHT31;74464;42.688;23.304;2024-01-10T04:16:00;-4.68;68.43
84296;SHT31;74464;42.688;23.304;2024-01-10T04:18:25;-4.49;68.18
84296;SHT31;74464;42.688;23.304;2024-01-10T04:20:51;-4.40;65.65
84296;SHT31;74464;42.688;23.304;2024-01-10T04:23:23;-4.52;66.19
84296;SHT31;74464;42.688;23.304;2024-01-10T04:25:48;-4.65;66.72
84296;SHT31;74464;42.688;23.304;2024-01-10T04:28:14;-4.58;67.78
84296;SHT31;74464;42.688;23.304;2024-01-10T04:30:40;-4.56;65.93
84296;SHT31;74464;42.688;23.304;2024-01-10T04:33:05;-4.91;66.69
84296;SHT31;74464;42.688;23.304;2024-01-10T04:35:31;-4.96;66.68
84296;SHT31;74464;42.688;23.304;2024-01-10T04:38:00;-4.99;66.90
84296;SHT31;74464;42.688;23.304;2024-01-10T04:40:25;-5.05;67.13
84296;SHT31;74464;42.688;23.304;2024-01-10T04:42:52;-5.03;67.08
84296;SHT31;74464;42.688;23.304;2024-01-10T04:45:18;-4.75;66.88
84296;SHT31;74464;42.688;23.304;2024-01-10T04:47:44;-4.87;67.28
84296;SHT31;74464;42.688;23.304;2024-01-10T04:50:10;-4.84;68.51
84296;SHT31;74464;42.688;23.304;2024-01-10T04:52:36;-4.65;68.60
84296;SHT31;74464;42.688;23.304;2024-01-10T04:55:02;-4.38;68.93
84296;SHT31;74464;42.688;23.304;2024-01-10T04:57:29;-4.51;66.34
84296;SHT31;74464;42.688;23.304;2024-01-10T04:59:55;-4.84;68.44
84296;SHT31;74464;42.688;23.304;2024-01-10T05:02:20;-4.79;68.32
84296;SHT31;74464;42.688;23.304;2024-01-10T05:04:46;-4.82;67.92
84296;SHT31;74464;42.688;23.304;2024-01-10T05:07:11;-4.94;68.47
84296;SHT31;74464;42.688;23.304;2024-01-10T05:09:37;-5.08;68.29
84296;SHT31;74464;42.688;23.304;2024-01-10T05:12:03;-5.15;67.77
84296;SHT31;74464;42.688;23.304;2024-01-10T05:14:28;-5.12;68.55
84296;SHT31;74464;42.688;23.304;2024-01-10T05:16:55;-5.19;66.32
84296;SHT31;74464;42.688;23.304;2024-01-10T05:19:20;-5.21;65.86
84296;SHT31;74464;42.688;23.304;2024-01-10T05:21:48;-5.14;66.83
84296;SHT31;74464;42.688;23.304;2024-01-10T05:24:15;-5.04;68.17
84296;SHT31;74464;42.688;23.304;2024-01-10T05:26:42;-4.99;66.42
84296;SHT31;74464;42.688;23.304;2024-01-10T05:29:07;-4.82;66.58
84296;SHT31;74464;42.688;23.304;2024-01-10T05:31:34;-4.58;65.71
84296;SHT31;74464;42.688;23.304;2024-01-10T05:33:59;-4.44;64.25
84296;SHT31;74464;42.688;23.304;2024-01-10T05:36:25;-4.38;63.79
84296;SHT31;74464;42.688;23.304;2024-01-10T05:38:51;-4.32;63.35
84296;SHT31;74464;42.688;23.304;2024-01-10T05:41:17;-4.34;62.08
84296;SHT31;74464;42.688;23.304;2024-01-10T05:43:44;-4.28;63.11
84296;SHT31;74464;42.688;23.304;2024-01-10T05:46:10;-4.24;62.76
84296;SHT31;74464;42.688;23.304;2024-01-10T05:48:35;-4.10;62.58
84296;SHT31;74464;42.688;23.304;2024-01-10T05:51:01;-4.17;62.66
84296;SHT31;74464;42.688;23.304;2024-01-10T05:53:27;-4.38;63.60
84296;SHT31;74464;42.688;23.304;2024-01-10T05:55:53;-4.35;63.13
84296;SHT31;74464;42.688;23.304;2024-01-10T05:58:19;-4.46;64.13
84296;SHT31;74464;42.688;23.304;2024-01-10T06:00:48;-4.69;64.84
84296;SHT31;74464;42.688;23.304;2024-01-10T06:03:13;-4.66;63.98
84296;SHT31;74464;42.688;23.304;2024-01-10T06:05:40;-4.68;64.23
84296;SHT31;74464;42.688;23.304;2024-01-10T06:08:06;-4.63;64.06
84296;SHT31;74464;42.688;23.304;2024-01-10T06:10:32;-4.62;65.30
84296;SHT31;74464;42.688;23.304;2024-01-10T06:12:59;-4.79;63.55
84296;SHT31;74464;42.688;23.304;2024-01-10T06:15:25;-4.84;62.84
84296;SHT31;74464;42.688;23.304;2024-01-10T06:17:51;-4.84;63.13
84296;SHT31;74464;42.688;23.304;2024-01-10T06:20:17;-4.69;63.15
84296;SHT31;74464;42.688;23.304;2024-01-10T06:23:02;-4.84;61.43
84296;SHT31;74464;42.688;23.304;2024-01-10T06:25:28;-4.84;62.73
84296;SHT31;74464;42.688;23.304;2024-01-10T06:27:54;-4.87;61.58
84296;SHT31;74464;42.688;23.304;2024-01-10T06:30:20;-4.76;62.69
84296;SHT31;74464;42.688;23.304;2024-01-10T06:32:45;-4.62;62.42
84296;SHT31;74464;42.688;23.304;2024-01-10T06:35:11;-4.53;60.68
84296;SHT31;74464;42.688;23.304;2024-01-10T06:37:37;-4.53;60.01
84296;SHT31;74464;42.688;23.304;2024-01-10T06:40:05;-4.36;60.32
84296;SHT31;74464;42.688;23.304;2024-01-10T06:42:31;-4.08;57.59
84296;SHT31;74464;42.688;23.304;2024-01-10T06:44:57;-4.38;57.96
84296;SHT31;74464;42.688;23.304;2024-01-10T06:47:23;-4.40;58.36
84296;SHT31;74464;42.688;23.304;2024-01-10T06:49:49;-4.34;58.32
84296;SHT31;74464;42.688;23.304;2024-01-10T06:52:16;-4.42;58.39
84296;SHT31;74464;42.688;23.304;2024-01-10T06:54:43;-4.35;59.26
84296;SHT31;74464;42.688;23.304;2024-01-10T06:57:09;-4.28;59.23
84296;SHT31;74464;42.688;23.304;2024-01-10T06:59:34;-4.36;58.53
84296;SHT31;74464;42.688;23.304;2024-01-10T07:02:00;-4.59;57.73
84296;SHT31;74464;42.688;23.304;2024-01-10T07:04:28;-4.72;58.52
84296;SHT31;74464;42.688;23.304;2024-01-10T07:06:54;-4.76;58.65
84296;SHT31;74464;42.688;23.304;2024-01-10T07:09:19;-4.84;58.31
84296;SHT31;74464;42.688;23.304;2024-01-10T07:11:48;-4.87;57.41
84296;SHT31;74464;42.688;23.304;2024-01-10T07:14:14;-5.07;56.47
84296;SHT31;74464;42.688;23.304;2024-01-10T07:16:41;-5.17;57.94
84296;SHT31;74464;42.688;23.304;2024-01-10T07:19:10;-5.03;58.77
84296;SHT31;74464;42.688;23.304;2024-01-10T07:21:40;-4.83;59.48
84296;SHT31;74464;42.688;23.304;2024-01-10T07:24:06;-4.76;59.97
84296;SHT31;74464;42.688;23.304;2024-01-10T07:26:34;-4.76;58.29
84296;SHT31;74464;42.688;23.304;2024-01-10T07:28:59;-4.19;55.14
84296;SHT31;74464;42.688;23.304;2024-01-10T07:31:29;-3.97;54.27
84296;SHT31;74464;42.688;23.304;2024-01-10T07:33:57;-4.01;52.35
84296;SHT31;74464;42.688;23.304;2024-01-10T07:36:24;-4.03;52.68
84296;SHT31;74464;42.688;23.304;2024-01-10T07:38:56;-3.94;52.38
84296;SHT31;74464;42.688;23.304;2024-01-10T07:41:23;-4.04;52.52
84296;SHT31;74464;42.688;23.304;2024-01-10T07:43:49;-3.97;52.25
84296;SHT31;74464;42.688;23.304;2024-01-10T07:46:15;-3.86;52.27
84296;SHT31;74464;42.688;23.304;2024-01-10T07:48:41;-3.75;51.61
84296;SHT31;74464;42.688;23.304;2024-01-10T07:51:07;-3.83;51.83
84296;SHT31;74464;42.688;23.304;2024-01-10T07:53:33;-3.65;52.54
84296;SHT31;74464;42.688;23.304;2024-01-10T07:55:59;-3.87;52.76
84296;SHT31;74464;42.688;23.304;2024-01-10T07:58:25;-4.04;53.52
84296;SHT31;74464;42.688;23.304;2024-01-10T08:00:58;-4.15;55.00
84296;SHT31;74464;42.688;23.304;2024-01-10T08:03:24;-3.85;52.65
84296;SHT31;74464;42.688;23.304;2024-01-10T08:05:49;-4.04;52.59
84296;SHT31;74464;42.688;23.304;2024-01-10T08:08:15;-3.87;52.91
84296;SHT31;74464;42.688;23.304;2024-01-10T08:10:42;-3.78;52.27
84296;SHT31;74464;42.688;23.304;2024-01-10T08:13:09;-3.63;51.51
84296;SHT31;74464;42.688;23.304;2024-01-10T08:15:35;-3.52;51.85
84296;SHT31;74464;42.688;23.304;2024-01-10T08:18:01;-3.86;51.88
84296;SHT31;74464;42.688;23.304;2024-01-10T08:20:29;-4.25;53.47
84296;SHT31;74464;42.688;23.304;2024-01-10T08:22:55;-4.48;53.87
84296;SHT31;74464;42.688;23.304;2024-01-10T08:25:21;-4.46;54.15
84296;SHT31;74464;42.688;23.304;2024-01-10T08:27:47;-4.18;53.79
84296;SHT31;74464;42.688;23.304;2024-01-10T08:30:14;-4.04;53.11
84296;SHT31;74464;42.688;23.304;2024-01-10T08:32:41;-3.82;53.26
84296;SHT31;74464;42.688;23.304;2024-01-10T08:35:07;-3.62;53.57
84296;SHT31;74464;42.688;23.304;2024-01-10T08:37:34;-3.65;51.11
84296;SHT31;74464;42.688;23.304;2024-01-10T08:40:00;-3.91;52.59
84296;SHT31;74464;42.688;23.304;2024-01-10T08:42:32;-3.91;52.46
84296;SHT31;74464;42.688;23.304;2024-01-10T08:44:58;-3.70;51.83
84296;SHT31;74464;42.688;23.304;2024-01-10T08:47:24;-3.56;51.27
84296;SHT31;74464;42.688;23.304;2024-01-10T08:49:50;-3.47;51.39
84296;SHT31;74464;42.688;23.304;2024-01-10T08:52:16;-3.44;51.06
84296;SHT31;74464;42.688;23.304;2024-01-10T08:54:42;-3.25;52.80
84296;SHT31;74464;42.688;23.304;2024-01-10T08:57:09;-3.13;52.98
84296;SHT31;74464;42.688;23.304;2024-01-10T08:59:35;-2.97;52.05
84296;SHT31;74464;42.688;23.304;2024-01-10T09:02:01;-2.82;51.86
84296;SHT31;74464;42.688;23.304;2024-01-10T09:04:28;-2.95;50.26
84296;SHT31;74464;42.688;23.304;2024-01-10T09:06:54;-2.95;51.30
84296;SHT31;74464;42.688;23.304;2024-01-10T09:09:19;-2.90;52.23
84296;SHT31;74464;42.688;23.304;2024-01-10T09:11:47;-2.79;52.04
84296;SHT31;74464;42.688;23.304;2024-01-10T09:14:13;-2.68;51.49
84296;SHT31;74464;42.688;23.304;2024-01-10T09:16:40;-2.55;51.37
84296;SHT31;74464;42.688;23.304;2024-01-10T09:19:07;-3.10;51.78
84296;SHT31;74464;42.688;23.304;2024-01-10T09:21:35;-3.14;53.26
84296;SHT31;74464;42.688;23.304;2024-01-10T09:24:00;-2.95;51.74
84296;SHT31;74464;42.688;23.304;2024-01-10T09:26:28;-2.70;51.25
84296;SHT31;74464;42.688;23.304;2024-01-10T09:28:55;-2.44;52.35
84296;SHT31;74464;42.688;23.304;2024-01-10T09:31:21;-2.27;51.40
84296;SHT31;74464;42.688;23.304;2024-01-10T09:33:48;-2.20;51.49
84296;SHT31;74464;42.688;23.304;2024-01-10T09:36:13;-2.13;52.63
84296;SHT31;74464;42.688;23.304;2024-01-10T09:38:40;-1.97;52.08
84296;SHT31;74464;42.688;23.304;2024-01-10T09:41:06;-1.86;51.31
84296;SHT31;74464;42.688;23.304;2024-01-10T09:43:32;-2.00;50.45
84296;SHT31;74464;42.688;23.304;2024-01-10T09:46:01;-2.17;50.57
84296;SHT31;74464;42.688;23.304;2024-01-10T09:48:30;-2.22;51.10
84296;SHT31;74464;42.688;23.304;2024-01-10T09:50:56;-1.95;52.56
84296;SHT31;74464;42.688;23.304;2024-01-10T09:53:25;-2.07;51.04
84296;SHT31;74464;42.688;23.304;2024-01-10T09:55:52;-2.10;49.62
84296;SHT31;74464;42.688;23.304;2024-01-10T09:58:23;-2.22;50.32
84296;SHT31;74464;42.688;23.304;2024-01-10T10:00:50;-2.24;50.88
84296;SHT31;74464;42.688;23.304;2024-01-10T10:03:17;-2.03;52.53
84296;SHT31;74464;42.688;23.304;2024-01-10T10:05:44;-1.90;50.76
84296;SHT31;74464;42.688;23.304;2024-01-10T10:08:14;-1.72;50.30
84296;SHT31;74464;42.688;23.304;2024-01-10T10:10:49;-1.86;49.45
84296;SHT31;74464;42.688;23.304;2024-01-10T10:13:25;-1.81;50.11
84296;SHT31;74464;42.688;23.304;2024-01-10T10:18:25;-1.65;50.11
84296;SHT31;74464;42.688;23.304;2024-01-10T10:23:32;-1.37;51.19
84296;SHT31;74464;42.688;23.304;2024-01-10T10:26:18;-1.54;50.80
84296;SHT31;74464;42.688;23.304;2024-01-10T10:28:49;-1.24;50.22
84296;SHT31;74464;42.688;23.304;2024-01-10T10:31:16;-1.03;48.90
84296;SHT31;74464;42.688;23.304;2024-01-10T10:33:44;-1.07;49.43
84296;SHT31;74464;42.688;23.304;2024-01-10T10:36:14;-0.89;49.19
84296;SHT31;74464;42.688;23.304;2024-01-10T10:38:40;-1.06;48.75
84296;SHT31;74464;42.688;23.304;2024-01-10T10:41:07;-1.14;49.57
84296;SHT31;74464;42.688;23.304;2024-01-10T10:43:36;-0.92;49.68
84296;SHT31;74464;42.688;23.304;2024-01-10T10:46:05;-0.82;48.92
84296;SHT31;74464;42.688;23.304;2024-01-10T10:48:36;-0.86;49.73
84296;SHT31;74464;42.688;23.304;2024-01-10T10:53:50;-0.74;52.34
84296;SHT31;74464;42.688;23.304;2024-01-10T10:56:16;-0.56;52.26
84296;SHT31;74464;42.688;23.304;2024-01-10T10:58:44;-0.61;52.99
84296;SHT31;74464;42.688;23.304;2024-01-10T11:01:12;-0.74;51.93
84296;SHT31;74464;42.688;23.304;2024-01-10T11:03:39;-0.82;53.66
84296;SHT31;74464;42.688;23.304;2024-01-10T11:06:07;-0.74;56.00
84296;SHT31;74464;42.688;23.304;2024-01-10T11:08:40;-0.57;54.38
84296;SHT31;74464;42.688;23.304;2024-01-10T11:11:18;-0.53;52.09
84296;SHT31;74464;42.688;23.304;2024-01-10T11:14:21;-0.09;51.55
84296;SHT31;74464;42.688;23.304;2024-01-10T11:25:16;-0.31;49.29
84296;SHT31;74464;42.688;23.304;2024-01-10T11:27:43;-0.44;48.42
84296;SHT31;74464;42.688;23.304;2024-01-10T11:30:10;-0.78;50.41
84296;SHT31;74464;42.688;23.304;2024-01-10T11:32:37;-0.72;51.08
84296;SHT31;74464;42.688;23.304;2024-01-10T11:35:21;-0.79;50.75
84296;SHT31;74464;42.688;23.304;2024-01-10T11:37:47;-0.62;50.05
84296;SHT31;74464;42.688;23.304;2024-01-10T11:40:15;-0.58;50.34
84296;SHT31;74464;42.688;23.304;2024-01-10T11:42:45;-0.75;50.65
84296;SHT31;74464;42.688;23.304;2024-01-10T11:47:56;-0.79;50.19
84296;SHT31;74464;42.688;23.304;2024-01-10T11:50:23;-0.62;50.77
84296;SHT31;74464;42.688;23.304;2024-01-10T11:52:52;-0.42;50.60
84296;SHT31;74464;42.688;23.304;2024-01-10T11:55:47;-0.47;49.87
84296;SHT31;74464;42.688;23.304;2024-01-10T11:58:13;-0.51;50.08
84296;SHT31;74464;42.688;23.304;2024-01-10T12:00:40;-0.53;51.65
84296;SHT31;74464;42.688;23.304;2024-01-10T12:03:07;-0.38;51.26
84296;SHT31;74464;42.688;23.304;2024-01-10T12:05:34;-0.34;50.67
84296;SHT31;74464;42.688;23.304;2024-01-10T12:08:06;-0.47;50.98
84296;SHT31;74464;42.688;23.304;2024-01-10T12:10:34;-0.41;51.74
84296;SHT31;74464;42.688;23.304;2024-01-10T12:13:04;-0.31;50.86
84296;SHT31;74464;42.688;23.304;2024-01-10T12:15:30;-0.34;51.46
84296;SHT31;74464;42.688;23.304;2024-01-10T12:17:56;-0.27;51.45
84296;SHT31;74464;42.688;23.304;2024-01-10T12:20:21;-0.19;50.81
84296;SHT31;74464;42.688;23.304;2024-01-10T12:22:47;-0.29;51.29
84296;SHT31;74464;42.688;23.304;2024-01-10T12:25:13;-0.13;51.37
84296;SHT31;74464;42.688;23.304;2024-01-10T12:27:39;-0.33;51.14
84296;SHT31;74464;42.688;23.304;2024-01-10T12:30:05;0.02;51.44
84296;SHT31;74464;42.688;23.304;2024-01-10T12:32:32;0.12;50.98
84296;SHT31;74464;42.688;23.304;2024-01-10T12:35:01;0.14;50.64
84296;SHT31;74464;42.688;23.304;2024-01-10T12:37:27;0.06;50.17
84296;SHT31;74464;42.688;23.304;2024-01-10T12:39:52;0.01;50.51
84296;SHT31;74464;42.688;23.304;2024-01-10T12:42:18;0.11;50.57
84296;SHT31;74464;42.688;23.304;2024-01-10T12:44:44;-0.05;51.24
84296;SHT31;74464;42.688;23.304;2024-01-10T12:47:21;-0.14;51.15
84296;SHT31;74464;42.688;23.304;2024-01-10T12:49:49;-0.02;51.68
84296;SHT31;74464;42.688;23.304;2024-01-10T12:52:15;0.24;51.62
84296;SHT31;74464;42.688;23.304;2024-01-10T12:54:41;0.42;50.48
84296;SHT31;74464;42.688;23.304;2024-01-10T12:57:08;0.45;50.23
84296;SHT31;74464;42.688;23.304;2024-01-10T12:59:34;0.59;50.24
84296;SHT31;74464;42.688;23.304;2024-01-10T13:02:00;0.59;49.75
84296;SHT31;74464;42.688;23.304;2024-01-10T13:04:26;0.45;50.26
84296;SHT31;74464;42.688;23.304;2024-01-10T13:06:53;0.43;50.50
84296;SHT31;74464;42.688;23.304;2024-01-10T13:09:19;0.25;51.50
84296;SHT31;74464;42.688;23.304;2024-01-10T13:11:46;0.35;50.29
84296;SHT31;74464;42.688;23.304;2024-01-10T13:14:12;-0.12;50.70
84296;SHT31;74464;42.688;23.304;2024-01-10T13:16:38;-0.20;50.98
84296;SHT31;74464;42.688;23.304;2024-01-10T13:19:03;-0.27;52.19
84296;SHT31;74464;42.688;23.304;2024-01-10T13:21:29;-0.12;52.35
84296;SHT31;74464;42.688;23.304;2024-01-10T13:23:55;0.11;51.00
84296;SHT31;74464;42.688;23.304;2024-01-10T13:26:21;-0.07;51.96
84296;SHT31;74464;42.688;23.304;2024-01-10T13:28:47;0.09;51.40
84296;SHT31;74464;42.688;23.304;2024-01-10T13:31:14;0.22;50.24
84296;SHT31;74464;42.688;23.304;2024-01-10T13:33:40;0.19;50.51
84296;SHT31;74464;42.688;23.304;2024-01-10T13:36:07;0.01;51.63
84296;SHT31;74464;42.688;23.304;2024-01-10T13:38:33;-0.14;51.34
84296;SHT31;74464;42.688;23.304;2024-01-10T13:41:01;0.11;51.10
84296;SHT31;74464;42.688;23.304;2024-01-10T13:43:27;0.25;50.42
84296;SHT31;74464;42.688;23.304;2024-01-10T13:45:53;0.19;50.50
84296;SHT31;74464;42.688;23.304;2024-01-10T13:48:19;0.25;50.61
84296;SHT31;74464;42.688;23.304;2024-01-10T13:50:44;0.19;50.39
84296;SHT31;74464;42.688;23.304;2024-01-10T13:53:11;-0.20;51.70
84296;SHT31;74464;42.688;23.304;2024-01-10T13:55:39;-0.16;51.44
84296;SHT31;74464;42.688;23.304;2024-01-10T13:58:04;-0.05;52.08
84296;SHT31;74464;42.688;23.304;2024-01-10T14:00:30;0.24;52.32
84296;SHT31;74464;42.688;23.304;2024-01-10T14:02:56;0.46;50.94
84296;SHT31;74464;42.688;23.304;2024-01-10T14:05:27;0.54;49.92
84296;SHT31;74464;42.688;23.304;2024-01-10T14:07:53;0.52;50.49
84296;SHT31;74464;42.688;23.304;2024-01-10T14:10:19;0.54;51.20
84296;SHT31;74464;42.688;23.304;2024-01-10T14:12:45;0.30;52.74
84296;SHT31;74464;42.688;23.304;2024-01-10T14:15:13;0.43;51.50
84296;SHT31;74464;42.688;23.304;2024-01-10T14:17:40;0.35;52.46
84296;SHT31;74464;42.688;23.304;2024-01-10T14:20:06;0.28;52.75
84296;SHT31;74464;42.688;23.304;2024-01-10T14:22:36;0.19;53.09
84296;SHT31;74464;42.688;23.304;2024-01-10T14:25:02;0.18;53.30
84296;SHT31;74464;42.688;23.304;2024-01-10T14:27:28;0.05;53.84
84296;SHT31;74464;42.688;23.304;2024-01-10T14:29:54;-0.01;53.79
84296;SHT31;74464;42.688;23.304;2024-01-10T14:32:19;0.05;54.59
84296;SHT31;74464;42.688;23.304;2024-01-10T14:34:45;-0.10;54.97
84296;SHT31;74464;42.688;23.304;2024-01-10T14:37:11;0.02;54.14
84296;SHT31;74464;42.688;23.304;2024-01-10T14:39:37;0.01;53.53
84296;SHT31;74464;42.688;23.304;2024-01-10T14:42:08;-0.07;54.26
84296;SHT31;74464;42.688;23.304;2024-01-10T14:44:34;-0.14;54.58
84296;SHT31;74464;42.688;23.304;2024-01-10T14:47:00;-0.13;54.76
84296;SHT31;74464;42.688;23.304;2024-01-10T14:49:27;-0.17;55.57
84296;SHT31;74464;42.688;23.304;2024-01-10T14:51:52;-0.22;55.57
84296;SHT31;74464;42.688;23.304;2024-01-10T14:54:18;-0.29;55.56
84296;SHT31;74464;42.688;23.304;2024-01-10T14:56:45;-0.37;55.91
84296;SHT31;74464;42.688;23.304;2024-01-10T14:59:14;-0.56;57.11
84296;SHT31;74464;42.688;23.304;2024-01-10T15:01:44;-0.41;56.71
84296;SHT31;74464;42.688;23.304;2024-01-10T15:04:10;-0.38;55.85
84296;SHT31;74464;42.688;23.304;2024-01-10T15:06:35;-0.36;54.95
84296;SHT31;74464;42.688;23.304;2024-01-10T15:09:02;-0.42;55.63
84296;SHT31;74464;42.688;23.304;2024-01-10T15:11:28;-0.50;56.09
84296;SHT31;74464;42.688;23.304;2024-01-10T15:13:54;-0.64;57.48
84296;SHT31;74464;42.688;23.304;2024-01-10T15:16:19;-0.72;57.69
84296;SHT31;74464;42.688;23.304;2024-01-10T15:18:46;-0.65;57.24
84296;SHT31;74464;42.688;23.304;2024-01-10T15:21:13;-0.65;56.86
84296;SHT31;74464;42.688;23.304;2024-01-10T15:23:39;-0.61;57.06
84296;SHT31;74464;42.688;23.304;2024-01-10T15:26:06;-0.62;56.64
84296;SHT31;74464;42.688;23.304;2024-01-10T15:28:33;-0.65;57.74
84296;SHT31;74464;42.688;23.304;2024-01-10T15:30:58;-0.67;58.26
84296;SHT31;74464;42.688;23.304;2024-01-10T15:33:25;-0.72;59.47
84296;SHT31;74464;42.688;23.304;2024-01-10T15:35:51;-0.76;59.97